Time;durP1;ratioP1;P1;durP2;ratioP2;P2;SDS_P1;SDS_P2;PMS_P1;PMS_P2;Temp;Humidity;BMP_temperature;BMP_pressure;BME280_temperature;BME280_humidity;BME280_pressure;Samples;Min_cycle;Max_cycle;Signal;HPM_P1;HPM_P2
2021/05/11 00:00:51;;;;;;;10.48;9.15;;;409.60;2355.20;;;;;;5097046;28;20024;-59
2021/05/11 00:03:17;;;;;;;12.20;9.07;;;384.90;2329.60;;;;;;5096856;28;20389;-62
2021/05/11 00:05:43;;;;;;;13.35;9.27;;;409.60;2355.20;;;;;;5096775;28;20035;-62
2021/05/11 00:08:08;;;;;;;12.18;9.18;;;409.60;2355.20;;;;;;5096829;28;20103;-58
2021/05/11 00:10:34;;;;;;;14.13;8.45;;;384.90;2329.60;;;;;;5096941;28;20030;-60
2021/05/11 00:13:00;;;;;;;10.50;7.63;;;384.90;2329.60;;;;;;5096476;28;20067;-63
2021/05/11 00:15:26;;;;;;;13.52;8.48;;;384.70;2329.60;;;;;;5096617;28;20028;-59
2021/05/11 00:17:51;;;;;;;11.43;7.22;;;384.70;2329.60;;;;;;5096899;28;20032;-61
2021/05/11 00:20:18;;;;;;;8.10;6.65;;;384.70;2329.60;;;;;;5096919;28;20024;-62
2021/05/11 00:22:45;;;;;;;10.90;7.82;;;384.60;2329.60;;;;;;5096962;28;20464;-61
2021/05/11 00:25:11;;;;;;;10.85;8.52;;;384.50;2329.60;;;;;;5096500;28;20073;-63
2021/05/11 00:27:37;;;;;;;9.90;7.78;;;384.50;2329.60;;;;;;5096616;28;20024;-57
2021/05/11 00:30:03;;;;;;;11.38;7.88;;;384.60;2329.60;;;;;;5096717;28;20020;-56
2021/05/11 00:32:29;;;;;;;10.27;7.65;;;384.70;2329.60;;;;;;5096513;28;20032;-58
2021/05/11 00:34:55;;;;;;;11.93;8.07;;;384.70;2329.60;;;;;;5096612;28;20385;-56
2021/05/11 00:37:21;;;;;;;9.40;7.43;;;384.70;2329.60;;;;;;5096656;28;20024;-57
2021/05/11 00:39:47;;;;;;;12.82;8.45;;;384.70;2329.60;;;;;;5096684;28;20380;-56
2021/05/11 00:42:12;;;;;;;9.85;7.18;;;384.60;2329.60;;;;;;5096324;28;20099;-57
2021/05/11 00:44:38;;;;;;;8.18;6.75;;;384.40;2329.60;;;;;;5096557;28;20020;-56
2021/05/11 00:47:04;;;;;;;8.90;7.25;;;384.20;2329.60;;;;;;5096165;28;20432;-56
2021/05/11 00:49:32;;;;;;;7.53;6.72;;;384.20;2329.60;;;;;;5096325;28;20031;-56
2021/05/11 00:51:59;;;;;;;9.82;7.72;;;384.20;2329.60;;;;;;5096224;28;20040;-56
2021/05/11 00:54:26;;;;;;;10.98;7.45;;;384.10;2329.60;;;;;;5096657;28;20027;-57
2021/05/11 00:56:53;;;;;;;8.45;6.85;;;384.10;2329.60;;;;;;5096375;28;20107;-58
2021/05/11 00:59:22;;;;;;;12.85;7.55;;;384.00;2329.60;;;;;;5096468;28;20069;-57
2021/05/11 01:01:48;;;;;;;9.48;7.47;;;384.10;2329.60;;;;;;5096630;28;20028;-57
2021/05/11 01:04:14;;;;;;;10.10;7.22;;;384.10;2329.60;;;;;;5096406;28;20020;-57
2021/05/11 01:06:40;;;;;;;8.20;6.65;;;384.10;2329.60;;;;;;5092443;28;20105;-57
2021/05/11 01:09:06;;;;;;;11.60;7.93;;;384.10;2329.60;;;;;;5093204;28;20479;-56
2021/05/11 01:11:33;;;;;;;9.73;7.38;;;384.10;2329.60;;;;;;5092800;28;20056;-57
2021/05/11 01:14:00;;;;;;;8.23;6.97;;;384.20;2329.60;;;;;;5092917;28;20020;-58
2021/05/11 01:16:27;;;;;;;10.15;6.22;;;384.10;2329.60;;;;;;5093153;28;20020;-59
2021/05/11 01:18:57;;;;;;;7.32;6.60;;;384.10;2329.60;;;;;;5092867;28;20039;-59
2021/05/11 01:21:32;;;;;;;10.55;7.07;;;384.00;2329.60;;;;;;5092930;28;20056;-58
2021/05/11 01:24:02;;;;;;;10.57;7.47;;;359.20;2329.60;;;;;;5092829;28;20047;-57
2021/05/11 01:26:43;;;;;;;10.13;7.60;;;359.20;2329.60;;;;;;5092692;28;20024;-59
2021/05/11 01:32:45;;;;;;;9.90;7.25;;;359.10;2329.60;;;;;;5069975;28;20036;-57
2021/05/11 02:23:55;;;;;;;9.57;6.43;;;358.70;2329.60;;;;;;5049722;28;20433;-60
2021/05/11 02:26:21;;;;;;;10.30;7.28;;;358.70;2329.60;;;;;;5049208;28;20067;-61
2021/05/11 02:28:48;;;;;;;9.93;8.05;;;358.80;2329.60;;;;;;5049303;28;20021;-62
2021/05/11 02:31:13;;;;;;;9.00;7.13;;;358.80;2329.60;;;;;;5069482;28;20038;-63
2021/05/11 02:33:39;;;;;;;9.20;8.23;;;358.70;2329.60;;;;;;5091278;28;20032;-57
2021/05/11 02:36:05;;;;;;;8.40;7.22;;;358.60;2329.60;;;;;;5091755;28;20099;-59
2021/05/11 02:38:31;;;;;;;10.27;7.90;;;358.60;2329.60;;;;;;5091288;28;20038;-62
2021/05/11 02:40:57;;;;;;;13.32;7.93;;;358.60;2329.60;;;;;;5091505;28;20028;-62
2021/05/11 02:43:27;;;;;;;13.00;8.18;;;358.60;2329.60;;;;;;5091162;28;20020;-58
2021/05/11 02:45:53;;;;;;;8.57;7.68;;;358.50;2329.60;;;;;;5090987;28;20080;-64
2021/05/11 02:48:19;;;;;;;11.75;8.25;;;358.50;2329.60;;;;;;5091217;28;20036;-62
2021/05/11 02:50:44;;;;;;;13.20;8.43;;;358.50;2329.60;;;;;;5091429;28;20028;-62
2021/05/11 02:53:10;;;;;;;12.15;7.32;;;358.50;2329.60;;;;;;5091073;28;20036;-60
2021/05/11 02:55:36;;;;;;;9.75;8.07;;;358.50;2329.60;;;;;;5091461;28;20073;-60
2021/05/11 02:58:02;;;;;;;9.85;7.22;;;358.60;2329.60;;;;;;5090787;28;20028;-62
2021/05/11 03:00:28;;;;;;;10.50;7.40;;;358.70;2329.60;;;;;;5090944;28;20031;-61
2021/05/11 03:02:55;;;;;;;11.68;7.70;;;358.60;2329.60;;;;;;5090922;28;20042;-57
2021/05/11 03:05:21;;;;;;;7.88;7.05;;;358.70;2329.60;;;;;;5090718;28;20462;-62
2021/05/11 03:07:47;;;;;;;10.68;7.80;;;358.70;2329.60;;;;;;5091016;28;20032;-61
2021/05/11 03:10:15;;;;;;;14.68;7.25;;;358.60;2329.60;;;;;;5090695;28;20416;-61
2021/05/11 03:12:41;;;;;;;9.75;7.47;;;358.60;2329.60;;;;;;5090634;28;20039;-62
2021/05/11 03:15:08;;;;;;;9.85;7.50;;;358.60;2329.60;;;;;;5090810;28;20024;-61
2021/05/11 03:17:34;;;;;;;8.50;7.32;;;358.70;2329.60;;;;;;5090606;28;20481;-62
2021/05/11 03:20:00;;;;;;;9.80;7.90;;;358.70;2329.60;;;;;;5090605;28;20028;-61
2021/05/11 03:22:25;;;;;;;8.73;7.10;;;358.80;2329.60;;;;;;5090994;28;20111;-60
2021/05/11 03:24:51;;;;;;;10.68;7.38;;;358.80;2329.60;;;;;;5090521;28;20466;-63
2021/05/11 03:27:17;;;;;;;11.05;7.95;;;358.80;2329.60;;;;;;5090800;28;20059;-60
2021/05/11 03:29:44;;;;;;;8.88;7.60;;;358.80;2329.60;;;;;;5089891;28;20473;-61
2021/05/11 03:32:09;;;;;;;11.57;8.75;;;358.80;2329.60;;;;;;5090163;28;20031;-58
2021/05/11 03:34:36;;;;;;;11.38;7.90;;;358.80;2329.60;;;;;;5090493;28;20030;-61
2021/05/11 03:37:02;;;;;;;8.63;7.13;;;358.60;2329.60;;;;;;5090361;28;20476;-63
2021/05/11 03:39:33;;;;;;;10.93;8.43;;;358.80;2329.60;;;;;;5090440;28;20102;-62
2021/05/11 03:42:03;;;;;;;11.15;7.80;;;358.90;2329.60;;;;;;5090389;28;20058;-61
2021/05/11 03:44:31;;;;;;;10.63;7.80;;;358.90;2329.60;;;;;;5090049;28;20056;-60
2021/05/11 03:46:57;;;;;;;8.85;7.60;;;359.00;2329.60;;;;;;5090097;28;20056;-62
2021/05/11 03:49:23;;;;;;;9.25;7.00;;;358.90;2329.60;;;;;;5090240;28;20035;-63
2021/05/11 03:51:49;;;;;;;11.00;7.85;;;359.00;2329.60;;;;;;5090587;28;20882;-61
2021/05/11 03:54:15;;;;;;;13.63;8.52;;;359.10;2329.60;;;;;;5089053;28;20036;-60
2021/05/11 03:56:41;;;;;;;11.38;8.35;;;359.20;2329.60;;;;;;5090035;28;20020;-62
2021/05/11 03:59:07;;;;;;;11.48;8.75;;;359.20;2329.60;;;;;;5088659;28;20035;-57
2021/05/11 04:01:33;;;;;;;11.27;7.68;;;359.20;2329.60;;;;;;5088254;28;20028;-61
2021/05/11 04:03:59;;;;;;;10.55;7.88;;;384.00;2329.60;;;;;;5088338;28;20103;-60
2021/05/11 04:06:25;;;;;;;11.38;8.38;;;384.00;2329.60;;;;;;5088766;28;20110;-61
2021/05/11 04:16:51;;;;;;;14.70;8.23;;;384.40;2304.00;;;;;;5088254;28;20047;-61
2021/05/11 04:19:17;;;;;;;12.60;8.23;;;384.30;2329.60;;;;;;5086442;28;20036;-61
2021/05/11 04:21:43;;;;;;;10.00;8.45;;;384.40;2329.60;;;;;;5087320;28;20388;-61
2021/05/11 04:24:09;;;;;;;15.00;8.68;;;384.40;2329.60;;;;;;5086880;28;20036;-59
2021/05/11 04:26:34;;;;;;;8.95;7.85;;;384.60;2304.00;;;;;;5087327;28;20035;-59
2021/05/11 04:29:01;;;;;;;12.25;7.38;;;384.60;2278.40;;;;;;5087834;28;20028;-59
2021/05/11 04:31:27;;;;;;;10.88;6.80;;;384.70;2278.40;;;;;;5087221;28;20040;-60
2021/05/11 04:33:56;;;;;;;13.43;7.78;;;384.70;2304.00;;;;;;5087691;28;20585;-62
2021/05/11 04:36:22;;;;;;;10.45;7.22;;;384.80;2278.40;;;;;;5088223;28;20396;-58
2021/05/11 04:38:48;;;;;;;13.13;8.18;;;409.60;2278.40;;;;;;5087864;28;20103;-61
2021/05/11 04:41:13;;;;;;;9.80;7.45;;;409.70;2252.80;;;;;;5090049;28;20016;-60
2021/05/11 04:43:41;;;;;;;13.50;7.93;;;409.90;2252.80;;;;;;5091911;28;20031;-58
2021/05/11 04:48:36;;;;;;;15.05;9.88;;;410.20;2252.80;;;;;;5092268;28;20035;-60
2021/05/11 04:51:02;;;;;;;11.38;10.25;;;460.90;2073.60;;;;;;5091273;28;20042;-58
2021/05/11 04:53:27;;;;;;;12.07;9.70;;;563.60;1587.20;;;;;;5091917;28;20692;-62
2021/05/11 04:55:53;;;;;;;11.57;9.30;;;640.60;1254.40;;;;;;5090883;28;20038;-64
2021/05/11 04:58:19;;;;;;;17.77;8.77;;;691.90;1100.80;;;;;;5091237;28;20035;-59
2021/05/11 05:00:45;;;;;;;13.38;9.60;;;717.50;1024.00;;;;;;5091085;28;20024;-60
2021/05/11 05:03:15;;;;;;;13.48;9.38;;;742.80;1024.00;;;;;;5091078;28;20367;-62
2021/05/11 05:05:43;;;;;;;10.13;9.07;;;742.70;998.40;;;;;;5090788;28;20366;-59
2021/05/11 05:08:09;;;;;;;10.45;9.38;;;743.30;972.80;;;;;;5088689;28;20150;-58
2021/05/11 05:10:35;;;;;;;11.38;10.48;;;794.20;896.00;;;;;;5089576;28;20028;-64
2021/05/11 05:13:01;;;;;;;12.27;11.27;;;793.90;896.00;;;;;;5090833;28;20043;-66
2021/05/11 05:15:27;;;;;;;16.65;15.40;;;793.70;921.60;;;;;;5087985;28;20636;-63
2021/05/11 05:17:52;;;;;;;12.32;11.15;;;819.80;844.80;;;;;;5090459;28;20676;-61
2021/05/11 05:20:18;;;;;;;12.48;11.13;;;845.40;819.20;;;;;;5091035;28;20123;-57
2021/05/11 05:22:44;;;;;;;10.05;9.18;;;870.70;768.00;;;;;;5090846;28;20030;-60
2021/05/11 05:25:17;;;;;;;11.73;10.77;;;896.10;742.40;;;;;;5090538;28;20016;-63
2021/05/11 05:27:48;;;;;;;11.80;10.55;;;896.50;716.80;;;;;;5090376;28;20063;-63
2021/05/11 05:30:14;;;;;;;10.30;9.40;;;871.20;742.40;;;;;;5090338;28;20533;-60
2021/05/11 05:32:40;;;;;;;11.68;10.68;;;896.10;742.40;;;;;;5090656;28;20043;-63
2021/05/11 05:35:06;;;;;;;11.07;10.18;;;896.60;716.80;;;;;;5091025;28;20021;-61
2021/05/11 05:37:32;;;;;;;12.75;10.95;;;922.10;691.20;;;;;;5090821;28;20477;-63
2021/05/11 05:40:00;;;;;;;14.48;12.90;;;947.20;665.60;;;;;;5091167;28;20043;-62
2021/05/11 05:42:25;;;;;;;15.38;13.80;;;947.90;640.00;;;;;;5090984;28;20031;-64
2021/05/11 05:44:51;;;;;;;16.40;14.90;;;947.40;665.60;;;;;;5089846;28;20028;-59
2021/05/11 05:47:18;;;;;;;14.45;12.63;;;973.00;640.00;;;;;;5090612;28;20135;-59
2021/05/11 05:49:48;;;;;;;16.90;15.30;;;973.70;640.00;;;;;;5090713;28;20059;-57
2021/05/11 05:52:21;;;;;;;14.65;13.35;;;999.10;614.40;;;;;;5090140;28;20040;-61
2021/05/11 05:54:48;;;;;;;16.20;14.60;;;1024.00;588.80;;;;;;5090730;28;20035;-62
2021/05/11 05:57:15;;;;;;;16.60;15.48;;;999.10;614.40;;;;;;5090028;28;20024;-60
2021/05/11 05:59:42;;;;;;;16.13;14.85;;;999.20;588.80;;;;;;5090850;28;20031;-61
2021/05/11 06:02:14;;;;;;;17.77;16.27;;;1024.50;563.20;;;;;;5092580;28;20020;-62
2021/05/11 06:04:40;;;;;;;;;;;1050.20;563.20;;;;;;5092378;28;20024;-60
2021/05/11 06:07:06;;;;;;;19.55;17.98;;;1050.50;537.60;;;;;;5092169;28;20356;-60
2021/05/11 06:09:32;;;;;;;20.05;18.65;;;1050.40;537.60;;;;;;5092000;28;20528;-64
2021/05/11 06:12:07;;;;;;;19.70;18.30;;;1050.50;537.60;;;;;;5091873;28;20469;-61
2021/05/11 06:14:50;;;;;;;20.40;18.55;;;1075.30;537.60;;;;;;5091494;28;20023;-60
2021/05/11 06:17:20;;;;;;;18.23;16.95;;;1050.40;537.60;;;;;;5091930;28;20081;-59
2021/05/11 06:19:54;;;;;;;18.80;17.35;;;1049.60;563.20;;;;;;5091907;28;20051;-60
2021/05/11 06:22:20;;;;;;;18.33;16.45;;;999.30;563.20;;;;;;5091633;28;20035;-61
2021/05/11 06:24:45;;;;;;;17.85;16.33;;;1024.00;563.20;;;;;;5091940;28;20111;-60
2021/05/11 06:27:12;;;;;;;17.17;16.00;;;1050.20;512.00;;;;;;5091617;28;20104;-61
2021/05/11 06:29:42;;;;;;;17.27;15.68;;;1075.20;486.40;;;;;;5091832;28;20027;-60
2021/05/11 06:32:09;;;;;;;16.98;15.88;;;1075.30;512.00;;;;;;5091422;28;20042;-60
2021/05/11 06:34:37;;;;;;;16.95;15.80;;;1049.90;537.60;;;;;;5091551;28;20442;-60
2021/05/11 06:37:03;;;;;;;17.95;16.30;;;1049.60;563.20;;;;;;5091314;28;20020;-60
2021/05/11 06:39:29;;;;;;;17.85;16.58;;;1075.60;486.40;;;;;;5091380;28;20027;-61
2021/05/11 06:41:57;;;;;;;17.23;15.63;;;1050.30;537.60;;;;;;5091425;28;20039;-60
2021/05/11 06:44:57;;;;;;;18.42;16.73;;;1050.40;512.00;;;;;;5091184;28;20035;-59
2021/05/11 06:55:18;;;;;;;20.75;18.52;;;1126.60;486.40;;;;;;5091359;28;20031;-60
2021/05/11 06:57:44;;;;;;;18.38;16.85;;;1101.30;512.00;;;;;;5090867;28;20059;-61
2021/05/11 07:00:10;;;;;;;18.10;16.70;;;1152.00;460.80;;;;;;5090871;28;20024;-61
2021/05/11 07:02:36;;;;;;;19.40;17.42;;;1152.40;460.80;;;;;;5090919;28;20492;-60
2021/05/11 07:05:01;;;;;;;20.05;17.58;;;1152.70;435.20;;;;;;5090572;28;20099;-60
2021/05/11 07:07:30;;;;;;;20.50;17.75;;;1101.70;486.40;;;;;;5090953;28;20020;-61
2021/05/11 07:10:08;;;;;;;16.77;15.38;;;1100.90;512.00;;;;;;5091009;28;20016;-60
2021/05/11 07:15:18;;;;;;;17.88;16.02;;;1127.10;460.80;;;;;;5090886;28;20088;-61
2021/05/11 07:17:44;;;;;;;16.45;15.18;;;1101.40;512.00;;;;;;5090571;28;20032;-60
2021/05/11 07:20:10;;;;;;;17.23;15.82;;;1127.10;460.80;;;;;;5090582;28;20016;-61
2021/05/11 07:22:36;;;;;;;18.17;16.38;;;1127.00;460.80;;;;;;5090727;28;20077;-61
2021/05/11 07:25:07;;;;;;;16.20;14.80;;;1152.10;460.80;;;;;;5090570;28;20024;-60
2021/05/11 07:30:26;;;;;;;18.55;16.73;;;1101.70;460.80;;;;;;5090687;28;20027;-60
2021/05/11 07:32:52;;;;;;;17.52;15.50;;;1101.10;512.00;;;;;;5090196;28;20061;-61
2021/05/11 07:35:18;;;;;;;21.42;19.45;;;1101.30;486.40;;;;;;5090522;28;20035;-60
2021/05/11 07:37:44;;;;;;;23.15;20.77;;;1101.20;486.40;;;;;;5090264;28;20067;-60
2021/05/11 07:40:10;;;;;;;20.15;18.08;;;1101.60;460.80;;;;;;5090248;28;20017;-61
2021/05/11 07:42:36;;;;;;;20.45;18.52;;;1101.70;486.40;;;;;;5090705;28;20093;-61
2021/05/11 07:45:04;;;;;;;20.23;18.42;;;1126.70;486.40;;;;;;5090275;28;20458;-60
2021/05/11 08:09:46;;;;;;;19.38;12.80;;;1152.40;460.80;;;;;;5090113;28;20031;-60
2021/05/11 08:17:01;;;;;;;13.35;12.07;;;1050.00;563.20;;;;;;5094180;28;20137;-61
2021/05/11 08:29:58;;;;;;;9.50;7.78;;;845.40;768.00;;;;;;5094363;28;20485;-61
2021/05/11 08:32:24;;;;;;;9.82;7.55;;;845.00;819.20;;;;;;5093744;28;20021;-60
2021/05/11 08:34:49;;;;;;;11.25;6.90;;;819.60;844.80;;;;;;5093835;28;20020;-61
2021/05/11 08:37:16;;;;;;;8.77;7.13;;;794.50;819.20;;;;;;5093818;28;20024;-60
2021/05/11 08:39:43;;;;;;;8.75;6.95;;;794.00;844.80;;;;;;5093520;28;20022;-61
2021/05/11 08:42:09;;;;;;;12.85;8.05;;;793.60;844.80;;;;;;5093637;28;20035;-60
2021/05/11 08:44:35;;;;;;;13.00;8.80;;;768.90;844.80;;;;;;5093730;28;20017;-61
2021/05/11 08:47:01;;;;;;;13.40;7.20;;;793.80;870.40;;;;;;5092988;28;20056;-59
2021/05/11 08:49:26;;;;;;;9.60;6.68;;;768.20;870.40;;;;;;5093546;28;20031;-62
2021/05/11 08:52:00;;;;;;;10.25;7.40;;;768.20;870.40;;;;;;5093464;28;20505;-60
2021/05/11 08:54:36;;;;;;;13.65;7.40;;;768.50;870.40;;;;;;5093559;28;20028;-63
2021/05/11 09:14:44;;;;;;;14.90;7.55;;;742.90;972.80;;;;;;5048299;28;20075;-61
2021/05/11 09:25:29;;;;;;;9.80;6.18;;;743.30;947.20;;;;;;5048780;28;20064;-63
2021/05/11 09:28:00;;;;;;;14.00;7.13;;;768.10;921.60;;;;;;5047508;28;20052;-61
2021/05/11 09:59:12;;;;;;;8.50;5.65;;;742.70;844.80;;;;;;4990353;28;20027;-63
2021/05/11 10:46:59;;;;;;;8.65;5.88;;;717.70;819.20;;;;;;5070545;28;20444;-59
2021/05/11 10:49:32;;;;;;;9.85;5.00;;;742.50;844.80;;;;;;5071075;28;20028;-61
2021/05/11 10:52:13;;;;;;;9.52;5.15;;;717.70;844.80;;;;;;5070910;28;20478;-60
2021/05/11 10:55:27;;;;;;;6.07;4.43;;;742.50;870.40;;;;;;5071039;28;20108;-61
2021/05/11 11:03:16;;;;;;;10.68;5.13;;;742.50;870.40;;;;;;5071070;28;20567;-63
2021/05/11 11:06:00;;;;;;;12.15;5.00;;;742.50;844.80;;;;;;5070684;28;20024;-60
2021/05/11 11:08:36;;;;;;;9.07;4.72;;;717.70;844.80;;;;;;5071309;28;20024;-62
2021/05/11 11:11:11;;;;;;;6.28;4.75;;;742.40;844.80;;;;;;5070463;28;20031;-60
2021/05/11 11:13:45;;;;;;;8.88;4.68;;;742.40;921.60;;;;;;5070688;28;20538;-62
2021/05/11 11:16:11;;;;;;;7.10;5.07;;;742.60;896.00;;;;;;5070356;28;20585;-66
2021/05/11 11:18:38;;;;;;;9.07;5.00;;;742.70;896.00;;;;;;5070574;28;20096;-61
2021/05/11 11:23:49;;;;;;;6.65;4.72;;;717.70;819.20;;;;;;5070704;28;20178;-60
2021/05/11 11:26:30;;;;;;;9.52;5.45;;;742.50;870.40;;;;;;5070547;28;20031;-60
2021/05/11 11:29:11;;;;;;;8.50;4.78;;;742.50;870.40;;;;;;5068053;28;20024;-60
2021/05/11 11:31:40;;;;;;;12.48;5.35;;;742.50;896.00;;;;;;5069049;28;20024;-60
2021/05/11 11:34:37;;;;;;;7.70;5.70;;;717.70;844.80;;;;;;5069110;28;20051;-61
2021/05/11 11:37:09;;;;;;;6.47;5.00;;;742.50;870.40;;;;;;5068798;28;20088;-62
2021/05/11 11:39:52;;;;;;;6.35;4.85;;;742.50;947.20;;;;;;5067509;28;20130;-60
2021/05/11 11:42:24;;;;;;;10.10;4.68;;;742.50;896.00;;;;;;5069773;28;20442;-61
2021/05/11 11:45:03;;;;;;;9.13;5.28;;;742.60;896.00;;;;;;5071614;28;20021;-60
2021/05/11 11:47:31;;;;;;;8.32;5.30;;;742.60;896.00;;;;;;5072070;28;20461;-60
2021/05/11 11:50:05;;;;;;;8.27;5.47;;;742.80;870.40;;;;;;5073562;28;20025;-61
2021/05/11 11:57:53;;;;;;;9.70;5.63;;;742.90;896.00;;;;;;5070081;28;20031;-60
2021/05/11 12:00:22;;;;;;;6.15;5.15;;;742.70;921.60;;;;;;5068367;28;20033;-66
2021/05/11 12:02:58;;;;;;;7.82;5.30;;;742.80;947.20;;;;;;5068326;28;20131;-64
2021/05/11 12:05:29;;;;;;;8.50;5.50;;;742.80;896.00;;;;;;5068434;28;20035;-63
2021/05/11 12:08:05;;;;;;;8.05;5.20;;;742.90;870.40;;;;;;5068302;28;20028;-63
2021/05/11 12:10:33;;;;;;;8.20;5.78;;;743.00;896.00;;;;;;5068685;28;20029;-63
2021/05/11 12:13:04;;;;;;;8.18;4.80;;;743.10;870.40;;;;;;5068658;28;20029;-64
2021/05/11 12:15:30;;;;;;;11.23;5.50;;;743.10;896.00;;;;;;5068573;28;20119;-61
2021/05/11 12:18:20;;;;;;;19.38;5.55;;;743.10;896.00;;;;;;5068908;28;20526;-62
2021/05/11 12:20:57;;;;;;;11.05;5.72;;;743.10;921.60;;;;;;5068403;28;20056;-61
2021/05/11 12:23:23;;;;;;;7.35;5.70;;;743.30;947.20;;;;;;5068011;28;20032;-62
2021/05/11 12:25:59;;;;;;;10.80;5.72;;;743.10;921.60;;;;;;5068384;28;20070;-63
2021/05/11 12:28:39;;;;;;;7.90;5.75;;;743.20;921.60;;;;;;5068184;28;20017;-63
2021/05/11 12:31:07;;;;;;;7.10;6.03;;;743.20;947.20;;;;;;5068035;28;20082;-64
2021/05/11 12:33:43;;;;;;;7.80;5.82;;;742.90;947.20;;;;;;5067386;28;20386;-64
2021/05/11 12:36:19;;;;;;;6.95;5.57;;;742.90;947.20;;;;;;5068225;28;20031;-69
2021/05/11 12:38:45;;;;;;;10.57;6.22;;;743.10;947.20;;;;;;5078313;28;20086;-61
2021/05/11 12:41:31;;;;;;;8.23;5.85;;;743.00;972.80;;;;;;5087677;28;20118;-61
2021/05/11 12:43:58;;;;;;;7.30;5.78;;;743.00;972.80;;;;;;5086313;28;20027;-63
2021/05/11 12:46:27;;;;;;;7.70;6.07;;;743.10;972.80;;;;;;5087435;28;20502;-60
2021/05/11 12:48:55;;;;;;;16.77;7.03;;;743.00;998.40;;;;;;5088295;28;20039;-59
2021/05/11 12:51:43;;;;;;;9.07;5.88;;;743.30;1100.80;;;;;;5088937;28;20448;-61
2021/05/11 12:54:24;;;;;;;9.70;6.13;;;743.20;947.20;;;;;;5093041;28;20032;-60
2021/05/11 12:57:02;;;;;;;7.38;5.95;;;743.10;921.60;;;;;;5098227;28;20024;-60
2021/05/11 13:02:36;;;;;;;8.82;6.30;;;743.00;921.60;;;;;;5072191;28;20166;-62
2021/05/11 13:14:31;;;;;;;11.40;5.72;;;743.00;870.40;;;;;;5028793;28;20515;-65
2021/05/11 13:22:36;;;;;;;8.10;5.32;;;743.10;844.80;;;;;;5029132;28;20028;-61
2021/05/11 13:25:29;;;;;;;11.20;5.35;;;743.30;844.80;;;;;;5028474;28;20120;-65
2021/05/11 13:28:03;;;;;;;12.45;6.65;;;743.30;870.40;;;;;;5028702;28;20038;-65
2021/05/11 13:33:24;;;;;;;8.82;6.00;;;743.20;844.80;;;;;;5028608;28;20064;-61
2021/05/11 13:35:50;;;;;;;11.20;6.28;;;743.10;819.20;;;;;;5028272;28;20038;-66
2021/05/11 13:38:16;;;;;;;6.95;5.68;;;743.30;844.80;;;;;;5038584;28;20032;-65
2021/05/11 13:40:42;;;;;;;9.70;6.30;;;768.00;844.80;;;;;;5090605;28;20117;-59
2021/05/11 13:43:08;;;;;;;8.35;6.43;;;768.10;844.80;;;;;;5090877;28;20067;-60
2021/05/11 13:45:33;;;;;;;12.82;6.32;;;768.10;870.40;;;;;;5090332;28;20028;-68
2021/05/11 13:48:05;;;;;;;8.77;5.97;;;768.20;921.60;;;;;;5090891;28;20722;-66
2021/05/11 13:53:15;;;;;;;7.50;6.13;;;768.10;870.40;;;;;;5090733;28;20669;-59
2021/05/11 13:56:13;;;;;;;10.80;7.38;;;768.00;870.40;;;;;;5090238;28;20116;-69
2021/05/11 14:04:01;;;;;;;8.25;6.55;;;768.00;870.40;;;;;;5089983;28;20442;-63
2021/05/11 14:06:27;;;;;;;9.20;7.18;;;768.10;896.00;;;;;;5090541;28;20470;-65
2021/05/11 14:08:52;;;;;;;11.60;6.45;;;768.10;896.00;;;;;;5090136;28;20036;-60
2021/05/11 14:11:18;;;;;;;11.38;6.30;;;768.00;896.00;;;;;;5090649;28;20050;-66
2021/05/11 14:13:44;;;;;;;8.40;5.93;;;768.00;896.00;;;;;;5090197;28;20024;-66
2021/05/11 14:16:10;;;;;;;12.30;6.30;;;768.00;896.00;;;;;;5090030;28;20028;-62
2021/05/11 14:18:36;;;;;;;10.27;6.05;;;768.10;921.60;;;;;;5089892;28;20024;-62
2021/05/11 14:21:02;;;;;;;12.10;6.43;;;768.20;947.20;;;;;;5090255;28;20118;-62
2021/05/11 14:23:28;;;;;;;7.43;6.30;;;768.10;947.20;;;;;;5090112;28;20112;-63
2021/05/11 14:25:54;;;;;;;8.23;5.68;;;768.00;921.60;;;;;;5089895;28;20028;-59
2021/05/11 14:28:19;;;;;;;9.60;5.97;;;768.10;998.40;;;;;;5090519;28;20036;-63
2021/05/11 14:30:45;;;;;;;8.80;5.78;;;743.30;921.60;;;;;;5089741;28;20454;-60
2021/05/11 14:33:11;;;;;;;7.40;6.05;;;768.10;947.20;;;;;;5089856;28;20059;-65
2021/05/11 14:35:37;;;;;;;8.95;5.63;;;768.00;972.80;;;;;;5093930;28;20020;-61
2021/05/11 14:38:02;;;;;;;11.07;6.50;;;743.30;947.20;;;;;;5094377;28;20020;-62
2021/05/11 14:40:28;;;;;;;7.00;6.07;;;743.10;972.80;;;;;;5092825;28;20481;-62
2021/05/11 14:42:54;;;;;;;11.38;6.32;;;743.20;972.80;;;;;;5089448;28;20064;-60
2021/05/11 14:45:23;;;;;;;12.05;6.68;;;743.10;972.80;;;;;;5089177;28;20044;-66
2021/05/11 14:47:49;;;;;;;8.55;5.13;;;743.10;972.80;;;;;;5089787;28;20043;-63
2021/05/11 14:50:17;;;;;;;8.32;5.47;;;743.10;972.80;;;;;;5089434;28;20533;-59
2021/05/11 14:52:43;;;;;;;10.95;5.97;;;743.10;972.80;;;;;;5088128;28;20024;-60
2021/05/11 14:55:13;;;;;;;8.77;5.72;;;743.20;1024.00;;;;;;5089582;28;20038;-60
2021/05/11 14:57:39;;;;;;;10.80;6.40;;;743.30;972.80;;;;;;5089298;28;20560;-61
2021/05/11 15:00:06;;;;;;;8.23;6.10;;;768.10;972.80;;;;;;5089552;28;20028;-60
2021/05/11 15:02:32;;;;;;;7.82;6.35;;;768.20;947.20;;;;;;5088870;28;20047;-60
2021/05/11 15:04:57;;;;;;;10.25;6.18;;;768.10;947.20;;;;;;5089542;28;20028;-60
2021/05/11 15:07:23;;;;;;;6.70;5.35;;;768.00;972.80;;;;;;5089185;28;20520;-61
2021/05/11 15:09:49;;;;;;;10.25;6.13;;;768.00;972.80;;;;;;5089129;28;20055;-58
2021/05/11 15:12:14;;;;;;;10.85;6.35;;;743.30;972.80;;;;;;5089513;28;20059;-61
2021/05/11 15:14:40;;;;;;;7.10;5.43;;;743.30;998.40;;;;;;5089018;28;20104;-65
2021/05/11 15:19:51;;;;;;;10.43;5.22;;;743.20;972.80;;;;;;5089235;28;20039;-60
2021/05/11 15:22:17;;;;;;;8.60;4.93;;;743.20;998.40;;;;;;5088480;28;20117;-61
2021/05/11 15:24:43;;;;;;;9.00;5.93;;;743.10;998.40;;;;;;5088513;28;20036;-63
2021/05/11 15:27:09;;;;;;;12.20;6.10;;;743.00;998.40;;;;;;5089056;28;20069;-59
2021/05/11 15:29:37;;;;;;;8.63;4.85;;;743.00;998.40;;;;;;5091333;28;20051;-66
2021/05/11 15:32:23;;;;;;;8.02;5.93;;;743.10;1024.00;;;;;;5090637;28;20111;-65
2021/05/11 15:34:48;;;;;;;7.70;5.68;;;743.10;1024.00;;;;;;5090515;28;20016;-64
2021/05/11 15:37:16;;;;;;;5.75;4.93;;;742.90;1024.00;;;;;;5090067;28;20488;-61
2021/05/11 15:39:41;;;;;;;7.30;5.43;;;742.80;1024.00;;;;;;5090215;28;20484;-60
2021/05/11 15:42:07;;;;;;;6.85;4.93;;;742.90;1024.00;;;;;;5089822;28;20118;-60
2021/05/11 15:44:34;;;;;;;9.52;4.93;;;743.00;1024.00;;;;;;5090243;28;20023;-62
2021/05/11 15:47:00;;;;;;;10.30;6.32;;;742.90;1024.00;;;;;;5089801;28;20409;-59
2021/05/11 15:49:25;;;;;;;8.85;5.28;;;742.90;1024.00;;;;;;5090375;28;20024;-61
2021/05/11 15:51:51;;;;;;;8.43;5.28;;;743.10;1024.00;;;;;;5090157;28;20115;-62
2021/05/11 15:54:17;;;;;;;11.73;5.00;;;768.50;972.80;;;;;;5090527;28;20031;-61
2021/05/11 15:56:43;;;;;;;12.25;6.38;;;768.70;947.20;;;;;;5090301;28;20454;-60
2021/05/11 15:59:09;;;;;;;9.63;5.45;;;768.20;972.80;;;;;;5090282;28;20027;-61
2021/05/11 16:01:35;;;;;;;9.30;4.93;;;743.10;1024.00;;;;;;5090012;28;20028;-61
2021/05/11 16:04:00;;;;;;;11.30;5.85;;;742.90;1049.60;;;;;;5090015;28;20036;-61
2021/05/11 16:06:26;;;;;;;16.42;5.28;;;742.80;1024.00;;;;;;5090455;28;20016;-61
2021/05/11 16:08:52;;;;;;;11.07;5.78;;;742.80;1049.60;;;;;;5089978;28;20355;-63
2021/05/11 16:11:18;;;;;;;10.57;5.22;;;742.60;1075.20;;;;;;5089908;28;20077;-61
2021/05/11 16:13:43;;;;;;;18.67;5.07;;;742.50;1075.20;;;;;;5089944;28;20061;-62
2021/05/11 16:16:09;;;;;;;8.90;5.65;;;717.70;1049.60;;;;;;5088214;28;20109;-61
2021/05/11 16:18:38;;;;;;;9.85;5.70;;;717.70;1049.60;;;;;;5088246;28;20123;-63
2021/05/11 16:21:04;;;;;;;8.48;4.65;;;717.50;1049.60;;;;;;5088260;28;20031;-60
2021/05/11 16:23:30;;;;;;;6.75;5.00;;;717.40;1049.60;;;;;;5088483;28;20039;-61
2021/05/11 16:25:55;;;;;;;7.15;5.32;;;717.20;1075.20;;;;;;5088592;28;20047;-64
2021/05/11 16:28:21;;;;;;;10.75;6.15;;;717.10;1075.20;;;;;;5088212;28;20161;-63
2021/05/11 16:30:47;;;;;;;12.55;6.90;;;717.20;1075.20;;;;;;5088027;28;20103;-66
2021/05/11 16:33:13;;;;;;;7.03;5.65;;;717.30;1100.80;;;;;;5088281;28;20381;-59
2021/05/11 16:35:39;;;;;;;9.68;6.05;;;717.20;1075.20;;;;;;5088418;28;20032;-63
2021/05/11 16:38:06;;;;;;;8.20;6.10;;;717.20;1075.20;;;;;;5091839;28;20031;-62